sensor_id;sensor_type;location;lat;lon;timestamp;pressure;altitude;pressure_sealevel;temperature;humidity
8294;BME280;4185;41.506;24.938;2022-10-24T00:00:55;94320.81;;;9.11;73.76
8294;BME280;4185;41.506;24.938;2022-10-24T00:03:23;94320.97;;;9.08;74.25
8294;BME280;4185;41.506;24.938;2022-10-24T00:05:50;94314.34;;;9.09;73.49
8294;BME280;4185;41.506;24.938;2022-10-24T00:08:17;94321.09;;;9.13;73.36
8294;BME280;4185;41.506;24.938;2022-10-24T00:10:46;94315.34;;;9.20;72.62
8294;BME280;4185;41.506;24.938;2022-10-24T00:13:15;94321.53;;;9.21;73.29
8294;BME280;4185;41.506;24.938;2022-10-24T00:15:45;94323.69;;;9.08;73.46
8294;BME280;4185;41.506;24.938;2022-10-24T00:18:12;94330.31;;;8.98;74.20
8294;BME280;4185;41.506;24.938;2022-10-24T00:20:40;94323.22;;;9.00;73.27
8294;BME280;4185;41.506;24.938;2022-10-24T00:23:07;94327.31;;;8.96;74.64
8294;BME280;4185;41.506;24.938;2022-10-24T00:25:35;94322.97;;;8.89;74.26
8294;BME280;4185;41.506;24.938;2022-10-24T00:28:02;94323.28;;;8.82;74.30
8294;BME280;4185;41.506;24.938;2022-10-24T00:30:29;94319.84;;;8.73;74.33
8294;BME280;4185;41.506;24.938;2022-10-24T00:32:57;94325.41;;;8.60;75.50
8294;BME280;4185;41.506;24.938;2022-10-24T00:35:24;94320.75;;;8.51;74.96
8294;BME280;4185;41.506;24.938;2022-10-24T00:37:50;94311.72;;;8.54;75.61
8294;BME280;4185;41.506;24.938;2022-10-24T00:40:19;94320.00;;;8.42;75.55
8294;BME280;4185;41.506;24.938;2022-10-24T00:42:46;94314.59;;;8.42;74.79
8294;BME280;4185;41.506;24.938;2022-10-24T00:45:36;94311.84;;;8.51;74.17
8294;BME280;4185;41.506;24.938;2022-10-24T00:48:13;94296.22;;;8.64;74.53
8294;BME280;4185;41.506;24.938;2022-10-24T00:50:42;94301.75;;;8.70;77.42
8294;BME280;4185;41.506;24.938;2022-10-24T00:53:10;94296.22;;;8.64;75.63
8294;BME280;4185;41.506;24.938;2022-10-24T00:55:37;94295.63;;;8.60;74.49
8294;BME280;4185;41.506;24.938;2022-10-24T00:58:05;94301.63;;;8.64;74.66
8294;BME280;4185;41.506;24.938;2022-10-24T01:00:33;94302.97;;;8.69;75.15
8294;BME280;4185;41.506;24.938;2022-10-24T01:03:01;94302.81;;;8.72;74.98
8294;BME280;4185;41.506;24.938;2022-10-24T01:05:33;94304.34;;;8.64;74.46
8294;BME280;4185;41.506;24.938;2022-10-24T01:08:08;94300.13;;;8.63;74.52
8294;BME280;4185;41.506;24.938;2022-10-24T01:10:43;94298.63;;;8.53;74.69
8294;BME280;4185;41.506;24.938;2022-10-24T01:13:21;94298.94;;;8.46;75.12
8294;BME280;4185;41.506;24.938;2022-10-24T01:15:54;94297.13;;;8.43;74.51
8294;BME280;4185;41.506;24.938;2022-10-24T01:18:29;94307.38;;;8.30;75.22
8294;BME280;4185;41.506;24.938;2022-10-24T01:21:08;94290.06;;;8.27;75.62
8294;BME280;4185;41.506;24.938;2022-10-24T01:23:50;94289.31;;;8.27;75.54
8294;BME280;4185;41.506;24.938;2022-10-24T01:26:49;94289.00;;;8.34;75.78
8294;BME280;4185;41.506;24.938;2022-10-24T01:29:30;94291.41;;;8.41;74.86
8294;BME280;4185;41.506;24.938;2022-10-24T01:32:05;94294.28;;;8.46;74.44
8294;BME280;4185;41.506;24.938;2022-10-24T01:34:39;94278.78;;;8.38;74.52
8294;BME280;4185;41.506;24.938;2022-10-24T01:37:12;94287.06;;;8.43;74.95
8294;BME280;4185;41.506;24.938;2022-10-24T01:39:45;94281.47;;;8.29;75.98
8294;BME280;4185;41.506;24.938;2022-10-24T01:42:15;94287.94;;;8.22;76.02
8294;BME280;4185;41.506;24.938;2022-10-24T01:44:48;94283.84;;;8.09;76.55
8294;BME280;4185;41.506;24.938;2022-10-24T01:47:18;94287.16;;;8.04;77.72
8294;BME280;4185;41.506;24.938;2022-10-24T01:49:50;94285.97;;;8.05;77.20
8294;BME280;4185;41.506;24.938;2022-10-24T01:52:19;94287.50;;;8.15;77.55
8294;BME280;4185;41.506;24.938;2022-10-24T01:54:47;94282.06;;;8.15;75.83
8294;BME280;4185;41.506;24.938;2022-10-24T01:57:14;94281.78;;;8.22;76.97
8294;BME280;4185;41.506;24.938;2022-10-24T01:59:43;94275.16;;;8.23;76.71
8294;BME280;4185;41.506;24.938;2022-10-24T02:02:17;94282.69;;;8.28;76.99
8294;BME280;4185;41.506;24.938;2022-10-24T02:04:49;94284.91;;;8.20;76.89
8294;BME280;4185;41.506;24.938;2022-10-24T02:07:18;94273.03;;;8.09;77.62
8294;BME280;4185;41.506;24.938;2022-10-24T02:09:49;94281.78;;;8.13;77.63
8294;BME280;4185;41.506;24.938;2022-10-24T02:12:17;94281.44;;;8.02;78.07
8294;BME280;4185;41.506;24.938;2022-10-24T02:14:50;94280.56;;;7.96;78.79
8294;BME280;4185;41.506;24.938;2022-10-24T02:17:21;94278.91;;;7.89;78.17
8294;BME280;4185;41.506;24.938;2022-10-24T02:19:48;94273.28;;;7.66;78.65
8294;BME280;4185;41.506;24.938;2022-10-24T02:22:22;94276.31;;;7.68;78.92
8294;BME280;4185;41.506;24.938;2022-10-24T02:24:55;94276.59;;;7.61;78.15
8294;BME280;4185;41.506;24.938;2022-10-24T02:27:28;94282.91;;;7.58;78.17
8294;BME280;4185;41.506;24.938;2022-10-24T02:29:58;94276.72;;;7.66;78.08
8294;BME280;4185;41.506;24.938;2022-10-24T02:32:32;94280.97;;;7.76;77.93
8294;BME280;4185;41.506;24.938;2022-10-24T02:35:00;94276.94;;;7.81;79.97
8294;BME280;4185;41.506;24.938;2022-10-24T02:37:29;94270.91;;;7.77;79.99
8294;BME280;4185;41.506;24.938;2022-10-24T02:39:58;94271.53;;;7.81;80.34
8294;BME280;4185;41.506;24.938;2022-10-24T02:42:26;94273.59;;;7.77;80.57
8294;BME280;4185;41.506;24.938;2022-10-24T02:44:54;94274.50;;;7.74;79.27
8294;BME280;4185;41.506;24.938;2022-10-24T02:47:22;94275.72;;;7.73;79.72
8294;BME280;4185;41.506;24.938;2022-10-24T02:49:54;94273.00;;;7.73;78.95
8294;BME280;4185;41.506;24.938;2022-10-24T02:52:21;94282.63;;;7.74;79.66
8294;BME280;4185;41.506;24.938;2022-10-24T02:54:49;94277.97;;;7.74;80.49
8294;BME280;4185;41.506;24.938;2022-10-24T02:57:16;94286.09;;;7.74;79.52
8294;BME280;4185;41.506;24.938;2022-10-24T02:59:43;94282.00;;;7.70;79.70
8294;BME280;4185;41.506;24.938;2022-10-24T03:02:10;94280.34;;;7.63;80.01
8294;BME280;4185;41.506;24.938;2022-10-24T03:04:36;94286.03;;;7.56;79.91
8294;BME280;4185;41.506;24.938;2022-10-24T03:07:05;94286.47;;;7.55;79.23
8294;BME280;4185;41.506;24.938;2022-10-24T03:09:32;94279.53;;;7.44;79.36
8294;BME280;4185;41.506;24.938;2022-10-24T03:11:59;94270.66;;;7.35;79.23
8294;BME280;4185;41.506;24.938;2022-10-24T03:14:26;94281.34;;;7.38;79.40
8294;BME280;4185;41.506;24.938;2022-10-24T03:16:53;94282.09;;;7.39;79.33
8294;BME280;4185;41.506;24.938;2022-10-24T03:19:19;94280.72;;;7.34;79.84
8294;BME280;4185;41.506;24.938;2022-10-24T03:21:46;94282.38;;;7.32;80.03
8294;BME280;4185;41.506;24.938;2022-10-24T03:24:14;94272.59;;;7.25;80.12
8294;BME280;4185;41.506;24.938;2022-10-24T03:26:41;94270.59;;;7.17;79.99
8294;BME280;4185;41.506;24.938;2022-10-24T03:29:09;94276.72;;;7.08;80.62
8294;BME280;4185;41.506;24.938;2022-10-24T03:31:38;94274.88;;;7.05;81.06
8294;BME280;4185;41.506;24.938;2022-10-24T03:34:05;94275.78;;;7.02;80.50
8294;BME280;4185;41.506;24.938;2022-10-24T03:36:32;94283.56;;;7.00;80.81
8294;BME280;4185;41.506;24.938;2022-10-24T03:38:59;94282.97;;;6.96;81.60
8294;BME280;4185;41.506;24.938;2022-10-24T03:41:27;94280.84;;;6.91;81.30
8294;BME280;4185;41.506;24.938;2022-10-24T03:43:54;94277.81;;;6.89;81.51
8294;BME280;4185;41.506;24.938;2022-10-24T03:46:21;94277.94;;;6.86;80.75
8294;BME280;4185;41.506;24.938;2022-10-24T03:48:48;94277.69;;;6.93;81.80
8294;BME280;4185;41.506;24.938;2022-10-24T03:51:15;94273.91;;;6.90;82.12
8294;BME280;4185;41.506;24.938;2022-10-24T03:53:41;94279.44;;;6.87;81.50
8294;BME280;4185;41.506;24.938;2022-10-24T03:56:08;94276.00;;;6.86;81.58
8294;BME280;4185;41.506;24.938;2022-10-24T03:58:36;94277.69;;;6.93;80.84
8294;BME280;4185;41.506;24.938;2022-10-24T04:01:03;94275.00;;;7.02;81.00
8294;BME280;4185;41.506;24.938;2022-10-24T04:03:30;94280.16;;;7.09;81.52
8294;BME280;4185;41.506;24.938;2022-10-24T04:05:57;94281.22;;;7.11;81.41
8294;BME280;4185;41.506;24.938;2022-10-24T04:08:24;94274.63;;;7.12;83.08
8294;BME280;4185;41.506;24.938;2022-10-24T04:10:51;94274.03;;;7.08;83.01
8294;BME280;4185;41.506;24.938;2022-10-24T04:13:17;94276.66;;;6.99;83.03
8294;BME280;4185;41.506;24.938;2022-10-24T04:15:46;94278.13;;;6.91;82.25
8294;BME280;4185;41.506;24.938;2022-10-24T04:18:12;94268.78;;;6.83;81.87
8294;BME280;4185;41.506;24.938;2022-10-24T04:20:39;94265.03;;;6.81;82.16
8294;BME280;4185;41.506;24.938;2022-10-24T04:23:06;94270.44;;;6.81;82.24
8294;BME280;4185;41.506;24.938;2022-10-24T04:25:33;94269.97;;;6.82;81.67
8294;BME280;4185;41.506;24.938;2022-10-24T04:28:00;94267.16;;;6.86;81.74
8294;BME280;4185;41.506;24.938;2022-10-24T04:30:27;94266.72;;;6.87;81.97
8294;BME280;4185;41.506;24.938;2022-10-24T04:32:55;94267.03;;;6.89;80.99
8294;BME280;4185;41.506;24.938;2022-10-24T04:35:23;94267.66;;;6.93;81.57
8294;BME280;4185;41.506;24.938;2022-10-24T04:37:50;94269.41;;;6.87;81.24
8294;BME280;4185;41.506;24.938;2022-10-24T04:40:17;94273.13;;;6.81;80.65
8294;BME280;4185;41.506;24.938;2022-10-24T04:42:44;94268.94;;;6.80;81.16
8294;BME280;4185;41.506;24.938;2022-10-24T04:45:11;94264.91;;;6.84;80.31
8294;BME280;4185;41.506;24.938;2022-10-24T04:47:37;94265.94;;;6.87;79.68
8294;BME280;4185;41.506;24.938;2022-10-24T04:50:07;94267.47;;;6.88;79.88
8294;BME280;4185;41.506;24.938;2022-10-24T04:52:34;94272.41;;;6.89;79.77
8294;BME280;4185;41.506;24.938;2022-10-24T04:55:01;94270.03;;;6.91;79.61
8294;BME280;4185;41.506;24.938;2022-10-24T04:57:27;94273.78;;;6.94;79.63
8294;BME280;4185;41.506;24.938;2022-10-24T04:59:54;94267.78;;;6.90;79.07
8294;BME280;4185;41.506;24.938;2022-10-24T05:02:21;94275.69;;;6.84;79.30
8294;BME280;4185;41.506;24.938;2022-10-24T05:04:48;94273.88;;;6.81;79.50
8294;BME280;4185;41.506;24.938;2022-10-24T05:07:16;94278.09;;;6.82;79.19
8294;BME280;4185;41.506;24.938;2022-10-24T05:09:45;94272.94;;;6.75;79.40
8294;BME280;4185;41.506;24.938;2022-10-24T05:12:12;94274.47;;;6.76;79.44
8294;BME280;4185;41.506;24.938;2022-10-24T05:14:39;94278.41;;;6.84;79.16
8294;BME280;4185;41.506;24.938;2022-10-24T05:17:05;94280.97;;;6.88;78.90
8294;BME280;4185;41.506;24.938;2022-10-24T05:19:32;94282.34;;;6.92;78.60
8294;BME280;4185;41.506;24.938;2022-10-24T05:22:00;94279.94;;;6.94;78.88
8294;BME280;4185;41.506;24.938;2022-10-24T05:24:28;94285.59;;;6.87;78.90
8294;BME280;4185;41.506;24.938;2022-10-24T05:26:55;94283.97;;;6.90;79.10
8294;BME280;4185;41.506;24.938;2022-10-24T05:29:22;94278.72;;;6.86;79.67
8294;BME280;4185;41.506;24.938;2022-10-24T05:31:49;94284.72;;;6.90;78.93
8294;BME280;4185;41.506;24.938;2022-10-24T05:34:16;94294.66;;;6.93;79.32
8294;BME280;4185;41.506;24.938;2022-10-24T05:36:43;94296.78;;;6.98;79.54
8294;BME280;4185;41.506;24.938;2022-10-24T05:39:10;94298.41;;;6.96;79.23
8294;BME280;4185;41.506;24.938;2022-10-24T05:41:38;94300.34;;;6.95;79.78
8294;BME280;4185;41.506;24.938;2022-10-24T05:44:05;94298.84;;;6.94;80.00
8294;BME280;4185;41.506;24.938;2022-10-24T05:46:32;94308.81;;;7.06;79.86
8294;BME280;4185;41.506;24.938;2022-10-24T05:48:58;94304.19;;;7.16;79.75
8294;BME280;4185;41.506;24.938;2022-10-24T05:51:25;94315.81;;;7.25;79.92
8294;BME280;4185;41.506;24.938;2022-10-24T05:53:52;94317.50;;;7.32;80.14
8294;BME280;4185;41.506;24.938;2022-10-24T05:56:19;94314.94;;;7.37;79.32
8294;BME280;4185;41.506;24.938;2022-10-24T05:58:47;94310.63;;;7.40;79.55
8294;BME280;4185;41.506;24.938;2022-10-24T06:01:14;94315.00;;;7.47;80.28
8294;BME280;4185;41.506;24.938;2022-10-24T06:03:41;94312.47;;;7.52;80.37
8294;BME280;4185;41.506;24.938;2022-10-24T06:06:09;94318.31;;;7.51;80.59
8294;BME280;4185;41.506;24.938;2022-10-24T06:08:37;94316.34;;;7.51;80.77
8294;BME280;4185;41.506;24.938;2022-10-24T06:11:08;94313.50;;;7.55;81.55
8294;BME280;4185;41.506;24.938;2022-10-24T06:13:35;94311.88;;;7.66;81.74
8294;BME280;4185;41.506;24.938;2022-10-24T06:16:05;94322.91;;;7.81;81.62
8294;BME280;4185;41.506;24.938;2022-10-24T06:18:32;94317.66;;;7.95;81.56
8294;BME280;4185;41.506;24.938;2022-10-24T06:20:59;94312.13;;;8.08;80.90
8294;BME280;4185;41.506;24.938;2022-10-24T06:23:26;94309.41;;;8.17;81.34
8294;BME280;4185;41.506;24.938;2022-10-24T06:25:53;94317.56;;;8.26;82.37
8294;BME280;4185;41.506;24.938;2022-10-24T06:28:20;94316.97;;;8.31;82.51
8294;BME280;4185;41.506;24.938;2022-10-24T06:30:48;94313.06;;;8.41;82.80
8294;BME280;4185;41.506;24.938;2022-10-24T06:33:17;94309.91;;;8.51;82.70
8294;BME280;4185;41.506;24.938;2022-10-24T06:35:44;94303.44;;;8.58;81.96
8294;BME280;4185;41.506;24.938;2022-10-24T06:38:11;94307.63;;;8.68;81.95
8294;BME280;4185;41.506;24.938;2022-10-24T06:40:38;94306.72;;;8.80;81.31
8294;BME280;4185;41.506;24.938;2022-10-24T06:43:07;94302.94;;;8.87;82.43
8294;BME280;4185;41.506;24.938;2022-10-24T06:45:35;94305.63;;;8.96;81.63
8294;BME280;4185;41.506;24.938;2022-10-24T06:48:03;94304.88;;;9.04;82.94
8294;BME280;4185;41.506;24.938;2022-10-24T06:50:31;94304.81;;;9.13;81.71
8294;BME280;4185;41.506;24.938;2022-10-24T06:52:58;94304.94;;;9.28;81.86
8294;BME280;4185;41.506;24.938;2022-10-24T06:55:24;94304.91;;;9.37;81.62
8294;BME280;4185;41.506;24.938;2022-10-24T06:57:52;94299.56;;;9.51;81.35
8294;BME280;4185;41.506;24.938;2022-10-24T07:00:19;94301.63;;;9.65;81.55
8294;BME280;4185;41.506;24.938;2022-10-24T07:02:45;94301.88;;;9.76;80.44
8294;BME280;4185;41.506;24.938;2022-10-24T07:05:12;94305.09;;;9.89;80.33
8294;BME280;4185;41.506;24.938;2022-10-24T07:07:41;94283.97;;;9.94;80.49
8294;BME280;4185;41.506;24.938;2022-10-24T07:10:11;94295.66;;;10.09;79.08
8294;BME280;4185;41.506;24.938;2022-10-24T07:12:38;94291.97;;;10.21;79.45
8294;BME280;4185;41.506;24.938;2022-10-24T07:15:05;94287.50;;;10.32;78.19
8294;BME280;4185;41.506;24.938;2022-10-24T07:17:38;94289.97;;;10.45;78.42
8294;BME280;4185;41.506;24.938;2022-10-24T07:20:05;94292.59;;;10.54;77.98
8294;BME280;4185;41.506;24.938;2022-10-24T07:22:33;94278.00;;;10.66;77.79
8294;BME280;4185;41.506;24.938;2022-10-24T07:25:02;94280.47;;;10.78;77.22
8294;BME280;4185;41.506;24.938;2022-10-24T07:27:29;94276.72;;;10.90;77.03
8294;BME280;4185;41.506;24.938;2022-10-24T07:29:56;94272.75;;;11.06;76.02
8294;BME280;4185;41.506;24.938;2022-10-24T07:32:23;94268.81;;;11.22;76.07
8294;BME280;4185;41.506;24.938;2022-10-24T07:34:50;94271.78;;;11.38;74.96
8294;BME280;4185;41.506;24.938;2022-10-24T07:37:17;94273.47;;;11.50;74.20
8294;BME280;4185;41.506;24.938;2022-10-24T07:39:44;94277.41;;;11.64;74.02
8294;BME280;4185;41.506;24.938;2022-10-24T07:42:13;94272.47;;;11.82;73.55
8294;BME280;4185;41.506;24.938;2022-10-24T07:44:41;94263.31;;;12.00;73.48
8294;BME280;4185;41.506;24.938;2022-10-24T07:47:07;94254.66;;;12.21;72.59
8294;BME280;4185;41.506;24.938;2022-10-24T07:49:35;94261.88;;;12.45;71.32
8294;BME280;4185;41.506;24.938;2022-10-24T07:52:03;94258.56;;;12.61;69.84
8294;BME280;4185;41.506;24.938;2022-10-24T07:54:30;94250.47;;;12.66;69.90
8294;BME280;4185;41.506;24.938;2022-10-24T07:56:57;94261.25;;;12.81;69.74
8294;BME280;4185;41.506;24.938;2022-10-24T07:59:25;94246.97;;;12.91;69.74
8294;BME280;4185;41.506;24.938;2022-10-24T08:01:51;94242.66;;;13.05;68.74
8294;BME280;4185;41.506;24.938;2022-10-24T08:04:18;94240.81;;;13.22;68.07
8294;BME280;4185;41.506;24.938;2022-10-24T08:06:45;94241.69;;;13.39;67.50
8294;BME280;4185;41.506;24.938;2022-10-24T08:09:12;94239.34;;;13.58;66.98
8294;BME280;4185;41.506;24.938;2022-10-24T08:11:39;94232.72;;;13.75;65.85
8294;BME280;4185;41.506;24.938;2022-10-24T08:14:06;94239.03;;;13.87;66.00
8294;BME280;4185;41.506;24.938;2022-10-24T08:16:34;94241.84;;;14.03;65.35
8294;BME280;4185;41.506;24.938;2022-10-24T08:19:02;94230.00;;;14.23;64.22
8294;BME280;4185;41.506;24.938;2022-10-24T08:21:29;94223.88;;;14.44;63.70
8294;BME280;4185;41.506;24.938;2022-10-24T08:23:58;94229.16;;;14.70;63.41
8294;BME280;4185;41.506;24.938;2022-10-24T08:26:25;94226.72;;;14.89;62.41
8294;BME280;4185;41.506;24.938;2022-10-24T08:28:52;94229.72;;;15.02;61.78
8294;BME280;4185;41.506;24.938;2022-10-24T08:31:21;94224.25;;;15.18;61.36
8294;BME280;4185;41.506;24.938;2022-10-24T08:33:52;94224.00;;;15.38;61.58
8294;BME280;4185;41.506;24.938;2022-10-24T08:36:24;94214.28;;;15.65;60.09
8294;BME280;4185;41.506;24.938;2022-10-24T08:38:51;94216.25;;;15.81;59.42
8294;BME280;4185;41.506;24.938;2022-10-24T08:41:25;94209.50;;;15.93;58.62
8294;BME280;4185;41.506;24.938;2022-10-24T08:43:53;94213.66;;;16.16;58.51
8294;BME280;4185;41.506;24.938;2022-10-24T08:46:34;94201.84;;;16.38;57.70
8294;BME280;4185;41.506;24.938;2022-10-24T08:49:11;94203.53;;;16.57;56.49
8294;BME280;4185;41.506;24.938;2022-10-24T08:51:42;94205.94;;;16.72;55.88
8294;BME280;4185;41.506;24.938;2022-10-24T08:54:13;94200.88;;;16.81;55.92
8294;BME280;4185;41.506;24.938;2022-10-24T08:56:42;94200.44;;;17.07;55.30
8294;BME280;4185;41.506;24.938;2022-10-24T08:59:10;94187.06;;;17.28;55.13
8294;BME280;4185;41.506;24.938;2022-10-24T09:01:42;94192.75;;;17.65;53.37
8294;BME280;4185;41.506;24.938;2022-10-24T09:04:13;94188.69;;;17.95;52.90
8294;BME280;4185;41.506;24.938;2022-10-24T09:06:43;94195.41;;;18.18;52.81
8294;BME280;4185;41.506;24.938;2022-10-24T09:09:18;94182.97;;;18.36;52.64
8294;BME280;4185;41.506;24.938;2022-10-24T09:11:50;94186.94;;;18.59;51.72
8294;BME280;4185;41.506;24.938;2022-10-24T09:14:19;94175.38;;;18.79;51.47
8294;BME280;4185;41.506;24.938;2022-10-24T09:16:51;94178.69;;;19.09;50.35
8294;BME280;4185;41.506;24.938;2022-10-24T09:19:22;94169.50;;;19.20;50.54
8294;BME280;4185;41.506;24.938;2022-10-24T09:21:51;94163.97;;;19.38;50.13
8294;BME280;4185;41.506;24.938;2022-10-24T09:24:38;94169.53;;;19.65;49.95
8294;BME280;4185;41.506;24.938;2022-10-24T09:27:11;94168.16;;;19.84;48.93
8294;BME280;4185;41.506;24.938;2022-10-24T09:29:40;94162.00;;;20.04;49.16
8294;BME280;4185;41.506;24.938;2022-10-24T09:32:13;94159.06;;;20.28;49.47
8294;BME280;4185;41.506;24.938;2022-10-24T09:34:42;94158.88;;;20.60;48.19
8294;BME280;4185;41.506;24.938;2022-10-24T09:37:31;94150.97;;;20.90;46.81
8294;BME280;4185;41.506;24.938;2022-10-24T09:40:13;94149.78;;;21.19;45.60
8294;BME280;4185;41.506;24.938;2022-10-24T09:42:47;94151.53;;;21.50;45.06
8294;BME280;4185;41.506;24.938;2022-10-24T09:45:27;94150.34;;;21.66;44.36
8294;BME280;4185;41.506;24.938;2022-10-24T09:47:56;94141.13;;;21.85;44.22
8294;BME280;4185;41.506;24.938;2022-10-24T09:50:25;94138.44;;;22.00;44.59
8294;BME280;4185;41.506;24.938;2022-10-24T09:52:55;94141.50;;;22.17;44.13
8294;BME280;4185;41.506;24.938;2022-10-24T09:55:25;94136.44;;;22.36;43.07
8294;BME280;4185;41.506;24.938;2022-10-24T09:57:54;94137.09;;;22.57;42.36
8294;BME280;4185;41.506;24.938;2022-10-24T10:00:24;94132.13;;;22.63;42.04
8294;BME280;4185;41.506;24.938;2022-10-24T10:02:58;94132.66;;;22.54;42.49
8294;BME280;4185;41.506;24.938;2022-10-24T10:05:40;94126.22;;;22.66;41.69
8294;BME280;4185;41.506;24.938;2022-10-24T10:08:10;94131.28;;;22.83;41.91
8294;BME280;4185;41.506;24.938;2022-10-24T10:10:39;94127.63;;;23.03;42.25
8294;BME280;4185;41.506;24.938;2022-10-24T10:13:17;94122.47;;;23.22;41.18
8294;BME280;4185;41.506;24.938;2022-10-24T10:15:49;94120.09;;;23.41;41.14
8294;BME280;4185;41.506;24.938;2022-10-24T10:18:23;94112.34;;;23.47;40.45
8294;BME280;4185;41.506;24.938;2022-10-24T10:21:04;94110.28;;;23.70;39.32
8294;BME280;4185;41.506;24.938;2022-10-24T10:23:33;94107.69;;;23.87;39.00
8294;BME280;4185;41.506;24.938;2022-10-24T10:26:04;94109.91;;;23.81;39.56
8294;BME280;4185;41.506;24.938;2022-10-24T10:28:33;94099.88;;;23.93;39.23
8294;BME280;4185;41.506;24.938;2022-10-24T10:31:00;94095.78;;;24.17;38.14
8294;BME280;4185;41.506;24.938;2022-10-24T10:33:34;94103.34;;;24.24;38.77
8294;BME280;4185;41.506;24.938;2022-10-24T10:36:09;94096.09;;;24.44;38.59
8294;BME280;4185;41.506;24.938;2022-10-24T10:38:49;94099.31;;;24.65;37.92
8294;BME280;4185;41.506;24.938;2022-10-24T10:41:35;94100.00;;;24.80;36.54
8294;BME280;4185;41.506;24.938;2022-10-24T10:44:20;94085.31;;;24.87;36.50
8294;BME280;4185;41.506;24.938;2022-10-24T10:47:01;94086.66;;;24.79;36.19
8294;BME280;4185;41.506;24.938;2022-10-24T10:49:31;94081.16;;;24.71;36.83
8294;BME280;4185;41.506;24.938;2022-10-24T10:52:06;94080.84;;;24.92;36.28
8294;BME280;4185;41.506;24.938;2022-10-24T10:57:24;94083.13;;;25.10;35.99
8294;BME280;4185;41.506;24.938;2022-10-24T10:59:57;94077.84;;;25.22;35.29
8294;BME280;4185;41.506;24.938;2022-10-24T11:02:47;94076.28;;;25.36;34.99
8294;BME280;4185;41.506;24.938;2022-10-24T11:05:27;94075.16;;;25.39;35.22
8294;BME280;4185;41.506;24.938;2022-10-24T11:08:08;94063.56;;;25.50;34.89
8294;BME280;4185;41.506;24.938;2022-10-24T11:10:39;94075.38;;;25.58;34.50
8294;BME280;4185;41.506;24.938;2022-10-24T11:13:14;94063.03;;;25.69;34.24
8294;BME280;4185;41.506;24.938;2022-10-24T11:15:46;94054.31;;;25.89;35.22
8294;BME280;4185;41.506;24.938;2022-10-24T11:18:17;94058.88;;;26.11;33.80
8294;BME280;4185;41.506;24.938;2022-10-24T11:20:50;94064.47;;;26.11;33.23
8294;BME280;4185;41.506;24.938;2022-10-24T11:23:23;94055.03;;;26.24;33.20
8294;BME280;4185;41.506;24.938;2022-10-24T11:25:57;94047.91;;;26.13;33.16
8294;BME280;4185;41.506;24.938;2022-10-24T11:28:28;94053.78;;;26.00;33.58
8294;BME280;4185;41.506;24.938;2022-10-24T11:30:59;94053.00;;;26.07;33.15
8294;BME280;4185;41.506;24.938;2022-10-24T11:33:31;94050.25;;;25.83;33.88
8294;BME280;4185;41.506;24.938;2022-10-24T11:36:14;94051.25;;;25.78;33.47
8294;BME280;4185;41.506;24.938;2022-10-24T11:38:49;94041.59;;;25.96;33.56
8294;BME280;4185;41.506;24.938;2022-10-24T11:41:38;94049.53;;;26.16;33.05
8294;BME280;4185;41.506;24.938;2022-10-24T11:44:17;94051.22;;;26.19;33.25
8294;BME280;4185;41.506;24.938;2022-10-24T11:46:52;94049.81;;;26.28;32.80
8294;BME280;4185;41.506;24.938;2022-10-24T11:49:24;94046.19;;;25.84;33.20
8294;BME280;4185;41.506;24.938;2022-10-24T11:51:56;94045.44;;;25.83;33.58
8294;BME280;4185;41.506;24.938;2022-10-24T11:54:30;94038.31;;;25.73;33.68
8294;BME280;4185;41.506;24.938;2022-10-24T11:57:02;94048.72;;;25.89;33.41
8294;BME280;4185;41.506;24.938;2022-10-24T11:59:29;94034.97;;;26.25;32.60
8294;BME280;4185;41.506;24.938;2022-10-24T12:02:19;94033.50;;;25.90;33.54
8294;BME280;4185;41.506;24.938;2022-10-24T12:05:08;94033.47;;;26.41;32.59
8294;BME280;4185;41.506;24.938;2022-10-24T12:08:10;94019.84;;;26.45;32.84
8294;BME280;4185;41.506;24.938;2022-10-24T12:10:55;94026.63;;;26.96;32.44
8294;BME280;4185;41.506;24.938;2022-10-24T12:13:41;94022.13;;;27.10;31.94
8294;BME280;4185;41.506;24.938;2022-10-24T12:16:21;94011.81;;;26.67;32.72
8294;BME280;4185;41.506;24.938;2022-10-24T12:18:57;94016.28;;;26.35;32.35
8294;BME280;4185;41.506;24.938;2022-10-24T12:21:32;94010.50;;;26.51;32.39
8294;BME280;4185;41.506;24.938;2022-10-24T12:24:00;94025.97;;;26.88;31.70
8294;BME280;4185;41.506;24.938;2022-10-24T12:26:30;94019.03;;;27.06;31.73
8294;BME280;4185;41.506;24.938;2022-10-24T12:28:59;94009.84;;;27.22;31.48
8294;BME280;4185;41.506;24.938;2022-10-24T12:31:27;94012.91;;;27.17;31.53
8294;BME280;4185;41.506;24.938;2022-10-24T12:37:04;94007.78;;;27.23;31.11
8294;BME280;4185;41.506;24.938;2022-10-24T12:39:37;94009.75;;;26.94;31.44
8294;BME280;4185;41.506;24.938;2022-10-24T12:42:13;94010.53;;;26.77;31.86
8294;BME280;4185;41.506;24.938;2022-10-24T12:44:42;94006.13;;;26.30;32.43
8294;BME280;4185;41.506;24.938;2022-10-24T12:47:33;94009.31;;;26.27;32.63
8294;BME280;4185;41.506;24.938;2022-10-24T12:53:16;94006.09;;;26.48;32.31
8294;BME280;4185;41.506;24.938;2022-10-24T12:58:55;94012.53;;;26.94;31.49
8294;BME280;4185;41.506;24.938;2022-10-24T13:01:25;94005.88;;;26.63;31.84
8294;BME280;4185;41.506;24.938;2022-10-24T13:04:12;94006.47;;;26.88;31.57
8294;BME280;4185;41.506;24.938;2022-10-24T13:06:59;94005.06;;;27.32;31.23
8294;BME280;4185;41.506;24.938;2022-10-24T13:09:39;94013.28;;;27.40;30.92
8294;BME280;4185;41.506;24.938;2022-10-24T13:12:28;93999.22;;;27.47;30.90
8294;BME280;4185;41.506;24.938;2022-10-24T13:15:14;94010.19;;;27.36;30.96
8294;BME280;4185;41.506;24.938;2022-10-24T13:17:48;94012.13;;;27.43;30.97
8294;BME280;4185;41.506;24.938;2022-10-24T13:20:19;94010.53;;;27.59;30.69
8294;BME280;4185;41.506;24.938;2022-10-24T13:22:48;94005.13;;;27.90;30.52
8294;BME280;4185;41.506;24.938;2022-10-24T13:25:29;94006.75;;;28.50;29.88
8294;BME280;4185;41.506;24.938;2022-10-24T13:31:46;94012.16;;;32.74;25.17
8294;BME280;4185;41.506;24.938;2022-10-24T13:34:20;94015.81;;;36.71;20.66
8294;BME280;4185;41.506;24.938;2022-10-24T13:36:50;94015.19;;;38.43;18.55
8294;BME280;4185;41.506;24.938;2022-10-24T13:39:23;94024.75;;;39.18;17.98
8294;BME280;4185;41.506;24.938;2022-10-24T13:41:57;94015.47;;;39.88;17.38
8294;BME280;4185;41.506;24.938;2022-10-24T13:44:28;94027.09;;;39.96;17.29
8294;BME280;4185;41.506;24.938;2022-10-24T13:47:07;94017.03;;;39.68;16.76
8294;BME280;4185;41.506;24.938;2022-10-24T13:49:41;94014.53;;;39.56;17.01
8294;BME280;4185;41.506;24.938;2022-10-24T13:52:16;94018.56;;;40.22;16.89